createdAt,value
2023-02-28T00:00:30.388Z,85.10
2023-02-28T00:03:36.137Z,85.20
2023-02-28T00:06:39.039Z,84.80
2023-02-28T00:09:43.204Z,84.90
2023-02-28T00:12:46.066Z,84.60
2023-02-28T00:15:48.920Z,84.90
2023-02-28T00:18:52.450Z,84.70
2023-02-28T00:21:55.437Z,84.90
2023-02-28T00:24:59.649Z,85.20
2023-02-28T00:28:02.515Z,85.30
2023-02-28T00:31:06.186Z,85.30
2023-02-28T00:34:09.229Z,84.90
2023-02-28T00:37:13.959Z,84.70
2023-02-28T00:40:18.426Z,85.00
2023-02-28T00:43:21.268Z,84.80
2023-02-28T00:46:24.206Z,85.30
2023-02-28T00:49:27.655Z,85.80
2023-02-28T00:52:30.497Z,85.80
2023-02-28T00:55:34.675Z,85.80
2023-02-28T00:58:37.578Z,86.00
2023-02-28T01:01:40.762Z,85.80
2023-02-28T01:04:43.675Z,85.80
2023-02-28T01:07:46.551Z,85.80
2023-02-28T01:10:50.922Z,86.30
2023-02-28T01:13:53.954Z,85.80
2023-02-28T01:16:56.783Z,86.30
2023-02-28T01:19:59.614Z,85.90
2023-02-28T01:23:02.517Z,86.10
2023-02-28T01:26:12.289Z,86.30
2023-02-28T01:29:15.128Z,86.70
2023-02-28T01:32:18.024Z,86.90
2023-02-28T01:35:21.011Z,86.90
2023-02-28T01:38:23.833Z,86.90
2023-02-28T01:41:30.172Z,86.70
2023-02-28T01:45:00.021Z,87.00
2023-02-28T01:48:06.007Z,87.10
2023-02-28T01:51:14.934Z,87.20
2023-02-28T01:54:22.975Z,86.90
2023-02-28T01:57:34.276Z,87.00
2023-02-28T02:00:37.382Z,87.10
2023-02-28T02:03:40.338Z,87.30
2023-02-28T02:06:46.653Z,87.50
2023-02-28T02:09:49.649Z,87.50
2023-02-28T02:13:22.379Z,87.40
2023-02-28T02:16:37.270Z,87.40
2023-02-28T02:20:33.892Z,87.80
2023-02-28T02:24:17.927Z,87.60
2023-02-28T02:27:28.044Z,87.80
2023-02-28T02:31:06.137Z,87.90
2023-02-28T02:34:30.836Z,87.80
2023-02-28T02:37:40.628Z,87.90
2023-02-28T02:40:48.925Z,88.10
2023-02-28T02:43:55.294Z,88.50
2023-02-28T02:47:05.520Z,88.40
2023-02-28T02:50:14.634Z,87.90
2023-02-28T02:53:21.734Z,88.20
2023-02-28T02:56:29.211Z,88.40
2023-02-28T02:59:33.159Z,88.30
2023-02-28T03:02:38.353Z,88.60
2023-02-28T03:05:47.167Z,88.80
2023-02-28T03:08:50.086Z,88.90
2023-02-28T03:11:54.303Z,88.90
2023-02-28T03:15:08.236Z,89.10
2023-02-28T03:18:17.312Z,89.10
2023-02-28T03:21:30.226Z,89.30
2023-02-28T03:24:38.076Z,89.10
2023-02-28T03:27:46.392Z,89.20
2023-02-28T03:30:54.909Z,89.90
2023-02-28T03:34:03.642Z,89.70
2023-02-28T03:37:14.046Z,90.30
2023-02-28T03:40:21.615Z,89.70
2023-02-28T03:43:30.165Z,90.00
2023-02-28T03:46:36.671Z,90.20
2023-02-28T03:49:44.509Z,90.40
2023-02-28T03:52:52.365Z,90.50
2023-02-28T03:55:59.969Z,90.40
2023-02-28T03:59:07.863Z,90.50
2023-02-28T04:02:11.281Z,90.60
2023-02-28T04:05:14.120Z,90.70
2023-02-28T04:08:18.300Z,90.70
2023-02-28T04:11:25.024Z,90.90
2023-02-28T04:14:27.942Z,90.90
2023-02-28T04:17:30.780Z,91.00
2023-02-28T04:20:33.605Z,91.00
2023-02-28T04:23:37.884Z,91.00
2023-02-28T04:26:40.728Z,90.90
2023-02-28T04:29:45.442Z,91.10
2023-02-28T04:32:48.780Z,91.30
2023-02-28T04:36:00.617Z,91.10
2023-02-28T04:39:04.997Z,91.40
2023-02-28T04:42:07.900Z,91.20
2023-02-28T04:45:11.934Z,91.20
2023-02-28T04:48:14.787Z,91.50
2023-02-28T04:51:20.617Z,91.40
2023-02-28T04:54:25.485Z,91.50
2023-02-28T04:57:28.348Z,91.70
2023-02-28T05:00:31.241Z,91.50
2023-02-28T05:03:34.074Z,91.60
2023-02-28T05:06:36.919Z,91.70
2023-02-28T05:09:41.424Z,91.70
2023-02-28T05:12:44.275Z,91.60
2023-02-28T05:15:47.148Z,91.60
2023-02-28T05:18:50.251Z,91.80
2023-02-28T05:21:54.317Z,91.70
2023-02-28T05:24:58.510Z,91.90
2023-02-28T05:28:01.362Z,92.00
2023-02-28T05:31:04.192Z,91.70
2023-02-28T05:34:07.464Z,91.90
2023-02-28T05:37:14.246Z,91.80
2023-02-28T05:40:20.482Z,91.90
2023-02-28T05:43:23.310Z,91.80
2023-02-28T05:46:26.398Z,91.70
2023-02-28T05:49:29.310Z,91.90
2023-02-28T05:52:32.170Z,91.80
2023-02-28T05:55:38.261Z,91.70
2023-02-28T05:58:41.561Z,91.90
2023-02-28T06:01:49.111Z,91.60
2023-02-28T06:04:52.161Z,91.40
2023-02-28T06:07:55.053Z,91.50
2023-02-28T06:10:59.235Z,91.50
2023-02-28T06:14:03.322Z,91.60
2023-02-28T06:17:06.209Z,91.90
2023-02-28T06:20:10.356Z,91.80
2023-02-28T06:23:13.178Z,91.70
2023-02-28T06:26:17.630Z,91.80
2023-02-28T06:29:20.872Z,92.10
2023-02-28T06:32:23.795Z,91.80
2023-02-28T06:35:27.870Z,91.60
2023-02-28T06:38:30.838Z,91.40
2023-02-28T06:41:53.536Z,91.40
2023-02-28T06:44:57.648Z,91.80
2023-02-28T06:48:01.209Z,91.80
2023-02-28T06:51:05.591Z,91.50
2023-02-28T06:54:10.610Z,91.50
2023-02-28T06:57:15.054Z,91.50
2023-02-28T07:00:18.506Z,91.50
2023-02-28T07:03:21.674Z,91.20
2023-02-28T07:06:25.275Z,91.40
2023-02-28T07:09:30.888Z,91.40
2023-02-28T07:12:35.136Z,91.50
2023-02-28T07:15:41.150Z,91.40
2023-02-28T07:18:45.531Z,91.30
2023-02-28T07:21:48.369Z,91.40
2023-02-28T07:24:51.220Z,91.40
2023-02-28T07:27:55.799Z,91.40
2023-02-28T07:30:58.708Z,91.60
2023-02-28T07:34:01.560Z,91.60
2023-02-28T07:37:06.011Z,91.40
2023-02-28T07:40:12.241Z,91.10
2023-02-28T07:43:16.444Z,91.40
2023-02-28T07:46:21.277Z,91.30
2023-02-28T07:49:24.312Z,91.30
2023-02-28T07:52:27.685Z,91.20
2023-02-28T07:55:30.532Z,91.00
2023-02-28T07:58:34.750Z,91.30
2023-02-28T08:01:37.647Z,91.30
2023-02-28T08:04:40.568Z,91.30
2023-02-28T08:07:43.579Z,91.40
2023-02-28T08:10:46.479Z,91.20
2023-02-28T08:13:50.766Z,91.30
2023-02-28T08:16:53.622Z,91.10
2023-02-28T08:19:56.520Z,91.00
2023-02-28T08:22:59.373Z,91.10
2023-02-28T08:26:02.246Z,90.90
2023-02-28T08:29:06.528Z,90.70
2023-02-28T08:32:23.576Z,90.80
2023-02-28T08:35:31.685Z,90.90
2023-02-28T08:38:34.553Z,90.90
2023-02-28T08:41:37.697Z,90.90
2023-02-28T08:44:42.488Z,90.90
2023-02-28T08:47:45.376Z,90.80
2023-02-28T08:51:06.708Z,90.90
2023-02-28T08:54:13.325Z,91.00
2023-02-28T08:57:16.202Z,90.60
2023-02-28T09:00:21.719Z,90.80
2023-02-28T09:03:25.394Z,90.90
2023-02-28T09:06:29.867Z,90.60
2023-02-28T09:09:32.825Z,90.90
2023-02-28T09:12:37.285Z,90.90
2023-02-28T09:15:41.654Z,90.90
2023-02-28T09:18:45.196Z,90.80
2023-02-28T09:21:48.147Z,90.50
2023-02-28T09:24:50.989Z,90.80
2023-02-28T09:27:53.929Z,90.20
2023-02-28T09:30:59.891Z,90.50
2023-02-28T09:34:03.696Z,90.60
2023-02-28T09:37:07.039Z,90.60
2023-02-28T09:40:12.275Z,90.20
2023-02-28T09:43:18.567Z,90.60
2023-02-28T09:46:34.493Z,90.40
2023-02-28T09:49:42.914Z,90.70
2023-02-28T09:52:49.189Z,90.40
2023-02-28T09:55:56.243Z,90.90
2023-02-28T09:59:03.755Z,90.60
2023-02-28T10:02:21.628Z,90.20
2023-02-28T10:05:28.147Z,90.00
2023-02-28T10:08:35.142Z,90.30
2023-02-28T10:11:41.519Z,90.50
2023-02-28T10:14:48.756Z,90.20
2023-02-28T10:18:08.497Z,89.90
2023-02-28T10:21:20.944Z,90.00
2023-02-28T10:24:31.062Z,89.70
2023-02-28T10:27:34.906Z,90.00
2023-02-28T10:30:41.380Z,89.90
2023-02-28T10:33:46.397Z,88.20
2023-02-28T10:36:51.407Z,89.10
2023-02-28T10:39:54.707Z,88.80
2023-02-28T10:42:59.039Z,88.90
2023-02-28T10:46:05.634Z,88.80
2023-02-28T10:49:17.300Z,87.90
2023-02-28T10:52:38.879Z,90.70
2023-02-28T10:55:41.868Z,87.80
2023-02-28T10:58:51.323Z,86.60
2023-02-28T11:01:54.563Z,85.60
2023-02-28T11:04:59.365Z,85.00
2023-02-28T11:08:08.824Z,82.60
2023-02-28T11:11:11.696Z,85.30
2023-02-28T11:14:22.559Z,85.40
2023-02-28T11:17:27.817Z,85.20
2023-02-28T11:20:34.677Z,85.80
2023-02-28T11:23:42.301Z,85.40
2023-02-28T11:26:47.404Z,84.60
2023-02-28T11:29:50.257Z,85.20
2023-02-28T11:32:53.344Z,85.60
2023-02-28T11:36:01.317Z,84.90
2023-02-28T11:39:12.976Z,84.60
2023-02-28T11:42:42.701Z,83.40
2023-02-28T11:45:56.546Z,82.90
2023-02-28T11:49:07.280Z,82.50
2023-02-28T11:52:23.042Z,82.40
2023-02-28T11:55:29.552Z,82.20
2023-02-28T11:58:42.898Z,81.40
2023-02-28T12:02:05.177Z,81.70
2023-02-28T12:05:27.593Z,81.00
2023-02-28T12:08:46.234Z,82.10
2023-02-28T12:11:54.794Z,82.10
2023-02-28T12:15:33.673Z,81.90
2023-02-28T12:18:51.626Z,80.40
2023-02-28T12:22:18.144Z,82.30
2023-02-28T12:25:45.881Z,82.10
2023-02-28T12:28:53.021Z,80.10
2023-02-28T12:32:05.938Z,80.90
2023-02-28T12:35:15.211Z,80.30
2023-02-28T12:38:21.432Z,79.40
2023-02-28T12:41:32.004Z,79.80
2023-02-28T12:44:41.368Z,78.50
2023-02-28T12:47:46.424Z,77.60
2023-02-28T12:50:50.804Z,75.40
2023-02-28T12:54:04.772Z,76.20
2023-02-28T12:57:15.538Z,75.30
2023-02-28T13:00:20.972Z,74.00
2023-02-28T13:03:38.524Z,72.10
2023-02-28T13:06:55.803Z,70.80
2023-02-28T13:10:00.749Z,69.30
2023-02-28T13:13:05.903Z,67.70
2023-02-28T13:16:10.935Z,68.60
2023-02-28T13:19:14.523Z,67.30
2023-02-28T13:22:38.710Z,65.80
2023-02-28T13:25:56.487Z,66.80
2023-02-28T13:29:02.986Z,64.20
2023-02-28T13:32:37.569Z,64.50
2023-02-28T13:35:47.206Z,62.30
2023-02-28T13:38:54.331Z,64.20
2023-02-28T13:41:57.201Z,62.90
2023-02-28T13:45:30.992Z,60.50
2023-02-28T13:48:33.929Z,61.70
2023-02-28T13:51:47.832Z,61.80
2023-02-28T13:55:17.193Z,59.40
2023-02-28T13:58:37.676Z,59.70
2023-02-28T14:01:54.821Z,60.80
2023-02-28T14:05:04.041Z,58.60
2023-02-28T14:08:16.227Z,60.10
2023-02-28T14:11:32.446Z,60.80
2023-02-28T14:14:58.297Z,60.90
2023-02-28T14:18:06.556Z,60.90
2023-02-28T14:21:18.405Z,62.60
2023-02-28T14:24:52.252Z,62.40
2023-02-28T14:28:04.536Z,63.20
2023-02-28T14:31:12.563Z,61.00
2023-02-28T14:34:28.198Z,61.50
2023-02-28T14:37:35.119Z,63.10
2023-02-28T14:40:40.323Z,62.50
2023-02-28T14:43:52.005Z,63.50
2023-02-28T14:46:57.393Z,65.10
2023-02-28T14:50:04.668Z,63.60
2023-02-28T14:53:17.499Z,64.80
2023-02-28T14:56:25.313Z,63.60
2023-02-28T14:59:31.755Z,66.50
2023-02-28T15:02:37.181Z,63.90
2023-02-28T15:05:41.384Z,65.00
2023-02-28T15:08:44.267Z,65.00
2023-02-28T15:11:50.644Z,64.60
2023-02-28T15:14:53.527Z,63.90
2023-02-28T15:17:59.561Z,63.30
2023-02-28T15:21:08.215Z,63.40
2023-02-28T15:24:24.514Z,63.40
2023-02-28T15:27:29.401Z,62.80
2023-02-28T15:30:34.206Z,61.30
2023-02-28T15:33:37.123Z,62.50
2023-02-28T15:36:41.349Z,62.40
2023-02-28T15:39:45.993Z,61.90
2023-02-28T15:43:01.870Z,61.90
2023-02-28T15:46:07.306Z,62.50
2023-02-28T15:49:19.532Z,61.90
2023-02-28T15:52:28.282Z,62.40
2023-02-28T15:55:32.362Z,63.40
2023-02-28T15:58:36.966Z,63.20
2023-02-28T16:01:40.760Z,62.60
2023-02-28T16:05:28.856Z,63.30
2023-02-28T16:08:33.061Z,62.80
2023-02-28T16:11:39.651Z,63.50
2023-02-28T16:14:43.554Z,64.00
2023-02-28T16:17:47.590Z,64.70
2023-02-28T16:20:50.450Z,64.90
2023-02-28T16:23:54.656Z,66.70
2023-02-28T16:26:59.059Z,66.10
2023-02-28T16:30:02.856Z,66.50
2023-02-28T16:33:05.713Z,67.00
2023-02-28T16:36:11.528Z,66.70
2023-02-28T16:39:15.784Z,66.40
2023-02-28T16:42:25.852Z,66.80
2023-02-28T16:45:30.707Z,68.10
2023-02-28T16:48:33.619Z,68.30
2023-02-28T16:51:36.899Z,69.10
2023-02-28T16:54:42.056Z,69.40
2023-02-28T16:57:46.561Z,69.20
2023-02-28T17:00:49.962Z,69.70
2023-02-28T17:03:52.875Z,70.00
2023-02-28T17:06:55.856Z,70.10
2023-02-28T17:10:01.549Z,70.30
2023-02-28T17:13:14.505Z,70.30
2023-02-28T17:16:24.501Z,70.50
2023-02-28T17:19:27.389Z,70.70
2023-02-28T17:22:30.293Z,71.00
2023-02-28T17:25:34.554Z,71.40
2023-02-28T17:28:37.482Z,71.80
2023-02-28T17:31:43.259Z,72.00
2023-02-28T17:34:46.984Z,72.80
2023-02-28T17:37:51.050Z,73.00
2023-02-28T17:40:58.128Z,73.30
2023-02-28T17:44:01.041Z,73.80
2023-02-28T17:47:03.958Z,74.20
2023-02-28T17:50:07.601Z,75.00
2023-02-28T17:53:10.519Z,75.40
2023-02-28T17:56:22.470Z,75.00
2023-02-28T17:59:25.362Z,76.00
2023-02-28T18:02:28.533Z,76.10
2023-02-28T18:05:31.970Z,76.00
2023-02-28T18:08:37.018Z,76.60
2023-02-28T18:11:44.780Z,83.00
2023-02-28T18:14:48.733Z,77.90
2023-02-28T18:17:51.973Z,77.90
2023-02-28T18:20:54.869Z,77.60
2023-02-28T18:23:58.864Z,78.50
2023-02-28T18:27:03.102Z,78.30
2023-02-28T18:30:06.795Z,78.00
2023-02-28T18:33:09.748Z,78.10
2023-02-28T18:36:12.617Z,78.40
2023-02-28T18:39:16.344Z,78.60
2023-02-28T18:42:20.557Z,78.30
2023-02-28T18:45:23.419Z,78.60
2023-02-28T18:48:26.327Z,78.80
2023-02-28T18:51:30.524Z,79.10
2023-02-28T18:54:33.455Z,78.40
2023-02-28T18:57:37.693Z,78.80
2023-02-28T19:00:40.570Z,78.90
2023-02-28T19:03:43.470Z,79.00
2023-02-28T19:06:46.411Z,79.10
2023-02-28T19:09:49.272Z,78.70
2023-02-28T19:12:53.474Z,79.40
2023-02-28T19:16:03.548Z,79.60
2023-02-28T19:19:06.675Z,80.10
2023-02-28T19:22:09.563Z,79.90
2023-02-28T19:25:12.647Z,80.10
2023-02-28T19:28:16.904Z,79.90
2023-02-28T19:31:21.546Z,80.30
2023-02-28T19:34:24.444Z,80.80
2023-02-28T19:37:27.324Z,80.20
2023-02-28T19:40:30.196Z,80.20
2023-02-28T19:43:34.632Z,80.70
2023-02-28T19:46:37.525Z,81.00
2023-02-28T19:49:40.438Z,80.50
2023-02-28T19:52:43.435Z,81.00
2023-02-28T19:55:48.652Z,81.70
2023-02-28T19:58:52.974Z,81.60
2023-02-28T20:01:56.374Z,81.30
2023-02-28T20:05:01.302Z,81.50
2023-02-28T20:08:04.461Z,82.00
2023-02-28T20:11:09.028Z,81.70
2023-02-28T20:14:14.472Z,81.40
2023-02-28T20:17:17.364Z,81.90
2023-02-28T20:20:20.458Z,81.80
2023-02-28T20:23:25.741Z,82.20
2023-02-28T20:26:29.035Z,82.90
2023-02-28T20:29:34.851Z,82.90
2023-02-28T20:32:39.507Z,83.00
2023-02-28T20:35:42.551Z,82.90
2023-02-28T20:38:45.469Z,83.40
2023-02-28T20:41:48.317Z,83.10
2023-02-28T20:44:52.546Z,83.50
2023-02-28T20:47:55.459Z,83.60
2023-02-28T20:51:00.016Z,83.50
2023-02-28T20:54:05.355Z,83.60
2023-02-28T20:57:08.448Z,83.70
2023-02-28T21:00:16.283Z,83.80
2023-02-28T21:03:19.186Z,84.40
2023-02-28T21:06:24.313Z,83.90
2023-02-28T21:09:27.640Z,84.10
2023-02-28T21:12:30.561Z,83.70
2023-02-28T21:15:38.346Z,84.10
2023-02-28T21:18:41.700Z,83.90
2023-02-28T21:21:46.697Z,83.90
2023-02-28T21:24:49.592Z,84.20
2023-02-28T21:27:55.569Z,84.30
2023-02-28T21:31:04.279Z,83.90
2023-02-28T21:34:10.398Z,83.90
2023-02-28T21:37:13.337Z,84.70
2023-02-28T21:40:16.480Z,84.50
2023-02-28T21:43:19.352Z,85.80
2023-02-28T21:46:25.531Z,84.50
2023-02-28T21:49:28.452Z,84.20
2023-02-28T21:52:31.310Z,84.10
2023-02-28T21:55:35.975Z,84.50
2023-02-28T21:58:38.864Z,84.60
2023-02-28T22:01:45.305Z,84.80
2023-02-28T22:04:48.340Z,84.70
2023-02-28T22:07:51.289Z,84.70
2023-02-28T22:10:54.415Z,85.20
2023-02-28T22:13:59.000Z,85.20
2023-02-28T22:17:03.332Z,84.70
2023-02-28T22:20:07.268Z,84.30
2023-02-28T22:23:10.117Z,85.10
2023-02-28T22:26:15.047Z,85.20
2023-02-28T22:29:18.270Z,84.40
2023-02-28T22:32:22.540Z,84.80
2023-02-28T22:35:25.480Z,85.40
2023-02-28T22:38:28.337Z,85.20
2023-02-28T22:41:31.838Z,85.30
2023-02-28T22:44:34.702Z,84.90
2023-02-28T22:47:39.044Z,85.30
2023-02-28T22:50:41.949Z,85.10
2023-02-28T22:53:46.776Z,84.90
2023-02-28T22:56:49.665Z,85.30
2023-02-28T22:59:52.520Z,85.60
2023-02-28T23:02:56.833Z,85.70
2023-02-28T23:05:59.797Z,85.70
2023-02-28T23:09:06.417Z,85.70
2023-02-28T23:12:09.338Z,85.50
2023-02-28T23:15:12.976Z,85.80
2023-02-28T23:18:17.270Z,85.80
2023-02-28T23:21:20.188Z,85.90
2023-02-28T23:24:24.572Z,86.00
2023-02-28T23:27:27.697Z,85.80
2023-02-28T23:30:30.704Z,85.90
2023-02-28T23:33:35.132Z,85.90
2023-02-28T23:36:39.049Z,85.80
2023-02-28T23:39:41.985Z,86.20
2023-02-28T23:42:45.283Z,85.90
2023-02-28T23:45:56.272Z,86.30
2023-02-28T23:49:01.128Z,86.40
2023-02-28T23:52:04.039Z,86.10
2023-02-28T23:55:08.010Z,86.40
2023-02-28T23:58:10.876Z,86.20
